Barksdale Air Force Base

KBAD · 路易斯安那州, 美国

罗盘
风向 的 风向 190° Barksdale Air Force Base 15/33
风: 7 kt, 3 beaufort

5 kt

4 kt
改变
0 1.000 2.000 3.000 4.000 5.000
SCT 1.400 ft
BKN 2.100 ft
OVC 2.800 ft
METAR K3F3 060935Z AUTO 19007KT 10SM SCT014 BKN021 OVC028 21/20 A2995 RMK AO2 T02100195

METAR Barksdale Air Force Base - KBAD/BAD

Barksdale Air Force Base是,美国中的中型机场。 该机场有一条跑道: 15/33. 该领域的国际民航组织标志是KBAD 它的国际航空运输协会代码是BAD.

这份报告是针对2022年12月6日 03:35, 当地时间在C E 'Rusty' Williams Airport进行的。

机场观察

风向为190°,速度为7 kt。

可见度为10 mi。

有疏云,零星散落的云朵在1.400 ft的高度, 碎云在2.100 ft的高度 和 乌云密布在2.800 ft的高度。 破损或更高的上限为2.100 ft。

温度和风寒是21 °C。 露点为20 °C,相对湿度为94%。 海平面上的气压为29,95 inHg (QNH)。

白天

今天,太阳从07:02升起,在17:08降落。 这适用于Barksdale Air Force Base,世界夏令时可能有所不同。 当地时间与世界标准时间之间的时差为-6 小时。 当前,没有夏令时有效。

公司介绍

我们没有关于这个机场的公司信息。

体会

到Vliegles.nl去找飞行课程,跳伞和其他飞行体验。 浏览页面,了解Barksdale Air Force Base附近所有可用的活动。 你也可以使用搜索功能来寻找你所在地附近的特定飞行课程、跳伞或其他飞行体验。

跑道

Id 标题 侧风 逆风 侧风 %
15/33 151°-331° 4 kt 5 kt 63 %

逆风成分最大的方向会被突出显示,并用于横风计算。 这并不一定意味着这个方向在使用。

乌云

1.400 ft SCT 疏云,零星散落的云朵
2.100 ft BKN 碎云
2.800 ft OVC 乌云密布

温度 & 天气

温度 21,0 °C
露点 19,5 °C
相对湿度 94%
Kp-index 0 (0-9)

评论

AO2自动气象站,可确定降水类型
T02100195温度为21,0 °C (69,8 °F),露点为19,5 °C (67,1 °F)

白天

日出
07:02 (3:16)
中午
12:06
日落
17:10

小工具

你想在你的网站上有一个关于Barksdale Air Force Base的当前航空天气(METAR)的小部件吗?

显示HTML代码

我们和第三方通过cookies跟踪您在我们网站上的互联网行为。如果你继续,我们认为你同意我们的饼干政策